createdAt,value
2022-08-10T00:02:42.660Z,22.73
2022-08-10T00:06:06.487Z,22.69
2022-08-10T00:09:30.175Z,22.69
2022-08-10T00:12:54.356Z,22.70
2022-08-10T00:16:19.716Z,22.69
2022-08-10T00:20:03.693Z,22.66
2022-08-10T00:23:25.067Z,22.67
2022-08-10T00:27:52.495Z,22.66
2022-08-10T00:30:30.833Z,22.61
2022-08-10T00:33:52.363Z,22.60
2022-08-10T00:37:17.357Z,22.50
2022-08-10T00:40:39.273Z,22.50
2022-08-10T00:44:00.934Z,22.46
2022-08-10T00:47:36.219Z,22.35
2022-08-10T00:51:04.526Z,22.35
2022-08-10T00:54:29.380Z,22.39
2022-08-10T00:57:55.445Z,22.21
2022-08-10T01:02:09.620Z,22.11
2022-08-10T01:05:07.350Z,22.02
2022-08-10T01:08:47.571Z,21.94
2022-08-10T01:12:38.596Z,21.83
2022-08-10T01:16:30.625Z,21.73
2022-08-10T01:20:37.049Z,21.61
2022-08-10T01:24:16.918Z,21.56
2022-08-10T01:28:03.257Z,21.54
2022-08-10T01:31:30.071Z,21.50
2022-08-10T01:35:06.317Z,21.64
2022-08-10T01:38:31.621Z,21.67
2022-08-10T01:42:02.643Z,21.70
2022-08-10T01:45:25.575Z,21.53
2022-08-10T01:48:53.382Z,21.45
2022-08-10T01:52:20.252Z,21.47
2022-08-10T01:55:43.577Z,21.47
2022-08-10T01:59:15.695Z,21.43
2022-08-10T02:02:42.339Z,21.45
2022-08-10T02:06:10.487Z,21.42
2022-08-10T02:09:35.398Z,21.40
2022-08-10T02:12:58.310Z,21.42
2022-08-10T02:16:21.960Z,21.43
2022-08-10T02:19:46.541Z,21.42
2022-08-10T02:23:32.331Z,21.33
2022-08-10T02:26:56.425Z,21.33
2022-08-10T02:30:23.103Z,21.29
2022-08-10T02:33:57.841Z,21.29
2022-08-10T02:37:24.894Z,21.30
2022-08-10T02:45:13.865Z,21.19
2022-08-10T02:45:23.630Z,21.18
2022-08-10T02:48:41.086Z,21.13
2022-08-10T02:52:08.955Z,21.10
2022-08-10T02:55:57.320Z,21.18
2022-08-10T02:59:40.019Z,21.16
2022-08-10T03:03:05.109Z,21.13
2022-08-10T03:06:34.831Z,21.13
2022-08-10T03:09:59.599Z,21.15
2022-08-10T03:13:22.693Z,21.12
2022-08-10T03:16:46.170Z,21.09
2022-08-10T03:20:38.400Z,21.05
2022-08-10T03:23:53.095Z,21.10
2022-08-10T03:27:16.598Z,21.06
2022-08-10T03:30:38.975Z,21.02
2022-08-10T03:34:05.087Z,21.00
2022-08-10T03:37:43.762Z,21.02
2022-08-10T03:41:08.553Z,21.06
2022-08-10T03:44:35.945Z,21.00
2022-08-10T03:47:58.922Z,20.98
2022-08-10T03:51:22.494Z,21.05
2022-08-10T03:54:45.119Z,21.08
2022-08-10T03:58:09.390Z,21.05
2022-08-10T04:02:44.274Z,20.98
2022-08-10T04:05:16.690Z,21.05
2022-08-10T04:08:45.121Z,21.10
2022-08-10T04:12:06.947Z,21.06
2022-08-10T04:15:29.315Z,21.00
2022-08-10T04:18:53.334Z,20.96
2022-08-10T04:22:21.338Z,20.95
2022-08-10T04:25:42.773Z,20.98
2022-08-10T04:29:07.365Z,21.08
2022-08-10T04:32:34.399Z,21.15
2022-08-10T04:35:57.106Z,21.16
2022-08-10T04:39:19.653Z,21.19
2022-08-10T04:42:41.626Z,21.25
2022-08-10T04:46:03.203Z,21.32
2022-08-10T04:49:55.251Z,21.37
2022-08-10T04:53:08.808Z,21.90
2022-08-10T04:56:32.864Z,22.64
2022-08-10T04:59:54.464Z,22.91
2022-08-10T05:03:18.239Z,23.21
2022-08-10T05:06:39.828Z,23.29
2022-08-10T05:10:06.073Z,23.34
2022-08-10T05:13:29.940Z,23.53
2022-08-10T05:16:51.714Z,23.65
2022-08-10T05:20:13.556Z,23.55
2022-08-10T05:23:40.144Z,23.38
2022-08-10T05:27:10.023Z,23.15
2022-08-10T05:30:35.937Z,23.14
2022-08-10T05:33:57.645Z,23.19
2022-08-10T05:38:09.890Z,23.27
2022-08-10T05:41:05.788Z,23.28
2022-08-10T05:44:32.122Z,23.37
2022-08-10T05:48:55.249Z,23.48
2022-08-10T05:51:38.786Z,23.65
2022-08-10T05:55:02.944Z,23.90
2022-08-10T05:58:27.912Z,23.93
2022-08-10T06:02:32.754Z,24.11
2022-08-10T06:05:39.471Z,24.01
2022-08-10T06:09:06.259Z,24.13
2022-08-10T06:12:32.774Z,24.13
2022-08-10T06:16:03.446Z,24.38
2022-08-10T06:19:25.943Z,24.59
2022-08-10T06:22:47.561Z,24.88
2022-08-10T06:26:14.746Z,24.93
2022-08-10T06:29:41.920Z,24.96
2022-08-10T06:33:04.562Z,25.10
2022-08-10T06:36:27.362Z,25.10
2022-08-10T06:39:56.051Z,25.09
2022-08-10T06:43:20.474Z,25.07
2022-08-10T06:46:48.406Z,25.37
2022-08-10T06:50:34.951Z,25.38
2022-08-10T06:54:06.802Z,25.55
2022-08-10T06:57:32.173Z,25.70
2022-08-10T07:00:55.690Z,25.81
2022-08-10T07:04:32.863Z,26.01
2022-08-10T07:07:57.762Z,26.33
2022-08-10T07:11:25.885Z,26.65
2022-08-10T07:14:51.859Z,26.98
2022-08-10T07:18:17.081Z,26.94
2022-08-10T07:21:47.419Z,26.99
2022-08-10T07:25:12.341Z,27.05
2022-08-10T07:28:34.184Z,27.11
2022-08-10T07:31:57.969Z,27.41
2022-08-10T07:35:22.694Z,27.64
2022-08-10T07:38:44.659Z,27.79
2022-08-10T07:42:08.827Z,27.53
2022-08-10T07:45:33.989Z,27.71
2022-08-10T07:49:02.599Z,28.14
2022-08-10T07:52:41.765Z,27.91
2022-08-10T07:56:20.965Z,27.93
2022-08-10T07:59:55.394Z,28.31
2022-08-10T08:03:21.092Z,28.48
2022-08-10T08:06:44.795Z,28.48
2022-08-10T08:10:08.499Z,28.18
2022-08-10T08:13:31.671Z,28.51
2022-08-10T08:16:55.317Z,28.48
2022-08-10T08:20:19.721Z,29.03
2022-08-10T08:24:04.352Z,29.34
2022-08-10T08:27:29.811Z,29.75
2022-08-10T08:30:52.619Z,30.07
2022-08-10T08:34:17.292Z,30.00
2022-08-10T08:38:31.531Z,30.12
2022-08-10T08:41:36.509Z,30.53
2022-08-10T08:45:03.035Z,30.43
2022-08-10T08:48:50.480Z,30.63
2022-08-10T08:52:22.971Z,30.91
2022-08-10T08:56:03.301Z,30.53
2022-08-10T08:59:47.358Z,29.99
2022-08-10T09:03:29.445Z,30.19
2022-08-10T09:07:58.966Z,30.06
2022-08-10T09:11:22.317Z,30.07
2022-08-10T09:15:00.032Z,30.67
2022-08-10T09:18:32.891Z,31.22
2022-08-10T09:22:33.461Z,30.65
2022-08-10T09:26:12.276Z,30.82
2022-08-10T09:29:47.202Z,31.33
2022-08-10T09:36:20.693Z,31.85
2022-08-10T09:37:06.929Z,31.80
2022-08-10T09:40:57.720Z,32.16
2022-08-10T09:44:31.005Z,31.70
2022-08-10T09:48:18.168Z,31.18
2022-08-10T09:52:09.622Z,31.36
2022-08-10T09:56:19.250Z,31.80
2022-08-10T10:00:00.022Z,32.59
2022-08-10T10:03:31.654Z,32.69
2022-08-10T10:07:04.315Z,32.66
2022-08-10T10:10:35.994Z,31.56
2022-08-10T10:14:27.827Z,32.09
2022-08-10T10:18:07.678Z,31.81
2022-08-10T10:22:09.644Z,31.71
2022-08-10T10:25:56.520Z,32.07
2022-08-10T10:29:58.065Z,31.33
2022-08-10T10:33:35.341Z,31.02
2022-08-10T10:37:00.912Z,31.43
2022-08-10T10:40:27.127Z,31.67
2022-08-10T10:44:05.415Z,31.80
2022-08-10T10:47:52.701Z,31.56
2022-08-10T10:51:21.026Z,31.23
2022-08-10T10:55:12.683Z,31.71
2022-08-10T10:58:43.268Z,32.45
2022-08-10T11:02:45.077Z,32.82
2022-08-10T11:06:30.294Z,32.25
2022-08-10T11:10:32.609Z,31.44
2022-08-10T11:14:25.725Z,31.21
2022-08-10T11:17:50.451Z,31.06
2022-08-10T11:21:40.554Z,31.63
2022-08-10T11:25:11.651Z,32.21
2022-08-10T11:28:36.929Z,32.57
2022-08-10T11:32:20.314Z,32.46
2022-08-10T11:35:54.238Z,32.53
2022-08-10T11:39:48.573Z,32.28
2022-08-10T11:43:27.339Z,31.64
2022-08-10T11:47:01.211Z,30.81
2022-08-10T11:50:36.077Z,30.30
2022-08-10T11:54:10.257Z,30.06
2022-08-10T11:57:54.250Z,30.60
2022-08-10T12:01:20.595Z,30.89
2022-08-10T12:04:47.704Z,30.78
2022-08-10T12:10:08.634Z,30.53
2022-08-10T12:11:54.423Z,30.19
2022-08-10T12:15:23.209Z,30.38
2022-08-10T12:19:02.070Z,30.75
2022-08-10T12:22:56.767Z,31.16
2022-08-10T12:26:22.542Z,31.30
2022-08-10T12:29:57.979Z,31.23
2022-08-10T12:34:01.921Z,30.95
2022-08-10T12:37:43.802Z,30.82
2022-08-10T12:41:44.563Z,30.91
2022-08-10T12:45:16.372Z,30.85
2022-08-10T12:48:52.856Z,31.05
2022-08-10T12:52:31.302Z,31.25
2022-08-10T12:55:53.164Z,31.34
2022-08-10T12:59:18.565Z,31.34
2022-08-10T13:02:49.127Z,31.33
2022-08-10T13:06:11.291Z,31.61
2022-08-10T13:09:33.786Z,31.19
2022-08-10T13:13:19.717Z,30.96
2022-08-10T13:16:43.668Z,31.02
2022-08-10T13:20:35.417Z,31.18
2022-08-10T13:24:17.788Z,31.61
2022-08-10T13:28:01.388Z,31.82
2022-08-10T13:32:03.252Z,32.07
2022-08-10T13:35:15.302Z,31.74
2022-08-10T13:38:38.690Z,31.88
2022-08-10T13:42:03.626Z,31.87
2022-08-10T13:45:28.884Z,31.77
2022-08-10T13:49:00.789Z,31.87
2022-08-10T13:52:26.688Z,31.94
2022-08-10T13:55:57.298Z,31.87
2022-08-10T13:59:20.185Z,31.87
2022-08-10T14:02:49.172Z,31.98
2022-08-10T14:06:13.430Z,31.97
2022-08-10T14:09:35.179Z,31.99
2022-08-10T14:13:02.058Z,31.78
2022-08-10T14:16:26.558Z,31.53
2022-08-10T14:19:59.173Z,31.67
2022-08-10T14:23:21.244Z,31.54
2022-08-10T14:26:46.462Z,31.47
2022-08-10T14:30:09.902Z,31.44
2022-08-10T14:33:34.439Z,31.56
2022-08-10T14:37:05.433Z,31.50
2022-08-10T14:40:37.876Z,31.59
2022-08-10T14:44:06.244Z,31.64
2022-08-10T14:47:53.905Z,31.54
2022-08-10T14:51:17.862Z,31.16
2022-08-10T14:54:48.765Z,30.96
2022-08-10T14:58:22.192Z,30.75
2022-08-10T15:02:00.087Z,30.81
2022-08-10T15:05:39.267Z,30.89
2022-08-10T15:09:18.872Z,30.85
2022-08-10T15:12:42.467Z,30.78
2022-08-10T15:16:13.906Z,30.81
2022-08-10T15:20:02.753Z,30.69
2022-08-10T15:23:31.318Z,30.74
2022-08-10T15:26:57.498Z,30.64
2022-08-10T15:30:23.742Z,30.64
2022-08-10T15:34:19.951Z,30.54
2022-08-10T15:37:43.072Z,30.38
2022-08-10T15:41:11.041Z,30.23
2022-08-10T15:44:46.411Z,30.36
2022-08-10T15:48:14.172Z,30.20
2022-08-10T15:51:53.718Z,30.12
2022-08-10T15:55:42.929Z,30.17
2022-08-10T15:59:25.559Z,30.07
2022-08-10T16:03:41.492Z,30.00
2022-08-10T16:07:07.750Z,29.80
2022-08-10T16:10:38.643Z,29.68
2022-08-10T16:14:07.336Z,29.54
2022-08-10T16:17:54.545Z,29.51
2022-08-10T16:21:25.018Z,29.41
2022-08-10T16:24:49.600Z,29.55
2022-08-10T16:28:23.351Z,29.44
2022-08-10T16:31:55.868Z,29.32
2022-08-10T16:35:21.480Z,29.17
2022-08-10T16:38:49.268Z,29.21
2022-08-10T16:42:26.893Z,29.04
2022-08-10T16:45:51.134Z,28.89
2022-08-10T16:49:16.121Z,28.92
2022-08-10T16:52:39.378Z,28.94
2022-08-10T16:56:04.071Z,28.76
2022-08-10T16:59:30.615Z,28.70
2022-08-10T17:02:58.242Z,28.58
2022-08-10T17:06:28.566Z,28.46
2022-08-10T17:09:51.696Z,28.38
2022-08-10T17:13:16.191Z,28.31
2022-08-10T17:16:43.269Z,28.21
2022-08-10T17:20:30.355Z,28.15
2022-08-10T17:23:55.455Z,28.19
2022-08-10T17:28:05.749Z,28.18
2022-08-10T17:31:39.725Z,28.12
2022-08-10T17:35:00.130Z,28.00
2022-08-10T17:38:27.360Z,27.97
2022-08-10T17:41:50.579Z,27.86
2022-08-10T17:45:47.024Z,27.77
2022-08-10T17:49:16.465Z,27.69
2022-08-10T17:52:40.561Z,27.67
2022-08-10T17:56:02.897Z,27.57
2022-08-10T17:59:27.590Z,27.38
2022-08-10T18:02:53.166Z,27.41
2022-08-10T18:06:18.699Z,27.29
2022-08-10T18:09:52.870Z,27.24
2022-08-10T18:13:21.927Z,27.19
2022-08-10T18:16:45.323Z,27.14
2022-08-10T18:20:09.733Z,27.04
2022-08-10T18:23:35.937Z,26.94
2022-08-10T18:27:02.917Z,26.87
2022-08-10T18:30:25.949Z,26.84
2022-08-10T18:33:53.396Z,26.85
2022-08-10T18:37:22.187Z,26.90
2022-08-10T18:40:52.474Z,26.80
2022-08-10T18:44:19.686Z,26.71
2022-08-10T18:47:59.111Z,26.67
2022-08-10T18:51:26.613Z,26.67
2022-08-10T18:54:50.974Z,26.64
2022-08-10T18:58:44.746Z,26.64
2022-08-10T19:02:34.475Z,26.67
2022-08-10T19:06:33.223Z,26.65
2022-08-10T19:10:01.782Z,26.60
2022-08-10T19:13:41.612Z,26.58
2022-08-10T19:17:24.147Z,26.50
2022-08-10T19:20:58.263Z,26.32
2022-08-10T19:24:44.055Z,26.23
2022-08-10T19:28:14.494Z,26.26
2022-08-10T19:32:06.404Z,26.32
2022-08-10T19:36:04.579Z,26.25
2022-08-10T19:39:52.497Z,26.03
2022-08-10T19:43:59.125Z,26.09
2022-08-10T19:47:06.948Z,26.10
2022-08-10T19:50:39.718Z,26.08
2022-08-10T19:54:50.354Z,26.13
2022-08-10T19:58:28.021Z,26.15
2022-08-10T20:01:54.371Z,26.20
2022-08-10T20:05:32.803Z,26.15
2022-08-10T20:09:22.291Z,26.10
2022-08-10T20:13:00.021Z,26.06
2022-08-10T20:16:24.859Z,26.06
2022-08-10T20:20:13.717Z,26.15
2022-08-10T20:24:04.363Z,26.12
2022-08-10T20:27:59.557Z,26.08
2022-08-10T20:31:23.750Z,26.09
2022-08-10T20:34:49.915Z,26.06
2022-08-10T20:38:27.630Z,26.03
2022-08-10T20:42:06.428Z,26.02
2022-08-10T20:45:51.909Z,26.03
2022-08-10T20:49:18.715Z,26.06
2022-08-10T20:52:45.047Z,25.98
2022-08-10T20:56:27.945Z,25.77
2022-08-10T21:00:09.879Z,25.64
2022-08-10T21:03:58.492Z,25.45
2022-08-10T21:08:02.470Z,25.35
2022-08-10T21:11:37.367Z,25.30
2022-08-10T21:15:23.852Z,25.24
2022-08-10T21:19:30.144Z,25.23
2022-08-10T21:22:54.508Z,24.89
2022-08-10T21:26:29.398Z,24.88
2022-08-10T21:30:08.741Z,24.88
2022-08-10T21:33:30.962Z,24.72
2022-08-10T21:37:14.144Z,24.71
2022-08-10T21:41:18.176Z,24.68
2022-08-10T21:45:07.862Z,24.62
2022-08-10T21:49:06.607Z,24.61
2022-08-10T21:53:04.624Z,24.57
2022-08-10T21:57:16.720Z,24.45
2022-08-10T22:01:05.658Z,24.51
2022-08-10T22:04:52.289Z,24.40
2022-08-10T22:08:38.583Z,24.25
2022-08-10T22:12:24.906Z,24.22
2022-08-10T22:16:18.335Z,24.11
2022-08-10T22:20:05.123Z,24.04
2022-08-10T22:24:18.915Z,23.99
2022-08-10T22:28:02.267Z,23.99
2022-08-10T22:32:20.215Z,24.00
2022-08-10T22:36:39.366Z,23.94
2022-08-10T22:40:25.763Z,23.84
2022-08-10T22:44:07.481Z,23.77
2022-08-10T22:47:51.405Z,23.65
2022-08-10T22:51:20.701Z,23.56
2022-08-10T22:55:12.007Z,23.56
2022-08-10T22:58:39.606Z,23.55
2022-08-10T23:02:09.324Z,23.61
2022-08-10T23:05:37.889Z,23.59
2022-08-10T23:09:01.834Z,23.51
2022-08-10T23:12:29.859Z,23.49
2022-08-10T23:16:22.101Z,23.41
2022-08-10T23:19:47.218Z,23.28
2022-08-10T23:23:23.629Z,23.29
2022-08-10T23:26:45.841Z,23.22
2022-08-10T23:30:17.503Z,23.14
2022-08-10T23:33:41.862Z,23.04
2022-08-10T23:37:08.048Z,23.06
2022-08-10T23:40:30.086Z,23.24
2022-08-10T23:44:03.867Z,23.21
2022-08-10T23:47:32.155Z,23.15
2022-08-10T23:51:17.809Z,23.14
2022-08-10T23:55:05.860Z,23.08
2022-08-10T23:58:41.557Z,23.04
